メインページ
METAR-TAF:

METAR-TAF

空港 :

Williams Lake, ブリティッシュコロンビア州, カナダ

緯度: 52-11N, 経度: 122-03W, 海抜: 940m

現時点の気象観測

当レポートは1時間7分前の17:00(UTC)に作成
変向風 5kt
気温 23°C
湿度 31%
気圧 1021 hPa
視程: 24.1km
晴天

METAR: CYWL 161700Z VRB05KT 15SM SKC 23/05 A3015 RMK SLP199 DENSITY ALT 4400FT

時間: 11:07 (18:07 UTC)

予報

当レポートは5時間29分前の12:38(UTC)に作成
予報は16日の 13時(UTC)から 17日の 01時(UTC)まで有効
変向風 3kt
視程: 10km
高度14000ftの雲はほとんどない
高度24000ftの雲は散在している
16日の 16時(UTC)から 16日の 18時(UTC)まで徐々に
北西の風 7kt

TAF: CYWL 161238Z 1613/1701 VRB03KT P6SM FEW140 SCT240 BECMG 1616/1618 32007KT RMK NXT FCST BY 161900Z

4,000以上の空港の気象観測と天気予報(METAR報とTAF報)

利用可能な観測所は地図上に黄色い丸と赤い丸で示す。

丸の上にカーソルを重ねると観測所名を参照できる。

次にクリックすると気象観測と天気予報を参照できる。

マップの切り替え:黒色「×」印の緑ボタンをクリックして拡大、「-」印の緑ボタンをクリックして縮小、緑色の三角印をクリックして隣りの地図に切り替え


METAR-TAF: